Time;durP1;ratioP1;P1;durP2;ratioP2;P2;SDS_P1;SDS_P2;PMS_P1;PMS_P2;Temp;Humidity;BMP_temperature;BMP_pressure;BME280_temperature;BME280_humidity;BME280_pressure;Samples;Min_cycle;Max_cycle;Signal;HPM_P1;HPM_P2
2022/03/21 00:01:16;;;;;;;18.60;10.85;;;;;;;1.35;53.54;96594.75;5017927;28;20234;-80
2022/03/21 00:03:43;;;;;;;19.33;11.35;;;;;;;1.32;53.28;96595.66;5036001;28;20648;-80
2022/03/21 00:06:11;;;;;;;27.55;9.90;;;;;;;1.31;52.94;96582.78;5036015;28;20196;-79
2022/03/21 00:08:37;;;;;;;13.75;10.27;;;;;;;1.34;53.26;96587.88;5036529;28;20198;-79
2022/03/21 00:11:04;;;;;;;15.60;10.15;;;;;;;1.33;52.58;96593.94;5035435;28;20547;-80
2022/03/21 00:13:35;;;;;;;17.27;10.90;;;;;;;1.28;52.92;96588.88;5035922;28;20204;-78
2022/03/21 00:16:03;;;;;;;19.90;10.77;;;;;;;1.20;53.02;96586.44;5017786;28;20208;-78
2022/03/21 00:18:30;;;;;;;19.02;10.65;;;;;;;1.18;53.25;96585.63;5035600;28;20659;-79
2022/03/21 00:20:57;;;;;;;17.77;11.05;;;;;;;1.17;53.49;96591.69;5035480;28;20706;-79
2022/03/21 00:23:25;;;;;;;15.13;11.02;;;;;;;1.16;53.46;96589.97;5035556;28;20188;-79
2022/03/21 00:25:53;;;;;;;17.40;11.77;;;;;;;1.12;53.88;96588.31;5035851;28;20188;-78
2022/03/21 00:28:20;;;;;;;16.10;11.05;;;;;;;1.08;53.69;96586.69;5017288;28;20204;-79
2022/03/21 00:30:48;;;;;;;15.95;9.30;;;;;;;1.10;53.69;96590.09;5035330;28;20188;-79
2022/03/21 00:33:15;;;;;;;13.57;9.27;;;;;;;1.10;53.12;96589.22;5035917;28;20191;-80
2022/03/21 00:35:43;;;;;;;13.27;10.00;;;;;;;1.09;53.33;96595.28;5035549;28;20199;-80
2022/03/21 00:38:14;;;;;;;12.45;8.95;;;;;;;1.11;53.59;96581.44;5035485;28;20238;-79
2022/03/21 00:40:41;;;;;;;13.75;8.90;;;;;;;1.08;53.64;96578.94;5035206;28;20297;-79
2022/03/21 00:43:08;;;;;;;22.88;11.30;;;;;;;1.01;53.52;96576.50;5035477;28;20286;-79
2022/03/21 00:45:35;;;;;;;20.85;9.95;;;;;;;0.99;54.12;96576.53;5035055;28;20189;-78
2022/03/21 00:48:04;;;;;;;16.00;11.10;;;;;;;0.95;53.88;96577.50;5035187;28;20570;-79
2022/03/21 00:50:34;;;;;;;17.65;10.70;;;;;;;0.97;54.43;96577.47;5035246;28;20214;-79
2022/03/21 00:53:01;;;;;;;14.25;10.43;;;;;;;0.95;53.75;96581.81;5035264;28;20208;-79
2022/03/21 00:55:29;;;;;;;15.50;10.10;;;;;;;0.99;53.82;96576.53;5034786;28;20206;-80
2022/03/21 00:57:56;;;;;;;16.08;8.30;;;;;;;0.97;54.29;96573.13;5035098;28;20575;-79
2022/03/21 01:00:25;;;;;;;17.65;10.50;;;;;;;0.96;53.87;96578.34;5035097;28;20214;-79
2022/03/21 01:02:52;;;;;;;18.35;9.35;;;;;;;0.93;54.08;96556.00;5035019;28;20207;-80
2022/03/21 01:05:22;;;;;;;15.38;10.20;;;;;;;1.01;54.58;96564.44;5000759;28;20207;-79
2022/03/21 01:11:10;;;;;;;13.48;9.30;;;;;;;0.97;54.46;96562.81;5034684;28;20630;-80
2022/03/21 01:13:41;;;;;;;18.40;10.93;;;;;;;0.89;54.54;96562.97;5034558;28;20200;-79
2022/03/21 01:16:08;;;;;;;15.45;10.95;;;;;;;0.87;54.21;96558.72;5034357;28;20715;-80
2022/03/21 01:18:36;;;;;;;22.92;11.25;;;;;;;0.83;54.38;96549.28;5034900;28;20208;-78
2022/03/21 01:21:04;;;;;;;20.58;10.35;;;;;;;0.80;54.60;96549.34;5034592;28;20223;-79
2022/03/21 01:23:31;;;;;;;16.52;10.20;;;;;;;0.77;54.67;96550.28;5016428;28;20211;-80
2022/03/21 01:25:58;;;;;;;19.13;9.85;;;;;;;0.74;54.20;96549.50;5034284;28;20200;-79
2022/03/21 01:28:25;;;;;;;12.98;9.20;;;;;;;0.70;54.43;96537.53;5016245;28;20656;-79
2022/03/21 01:30:51;;;;;;;13.25;9.65;;;;;;;0.59;54.15;96528.25;5034148;28;20188;-79
2022/03/21 01:33:18;;;;;;;14.35;10.50;;;;;;;0.60;54.74;96540.28;5034821;28;20545;-79
2022/03/21 01:35:45;;;;;;;12.90;9.63;;;;;;;0.60;54.98;96536.84;5034182;28;20202;-79
2022/03/21 01:38:13;;;;;;;13.00;10.30;;;;;;;0.61;54.99;96539.41;5033969;28;20213;-79
2022/03/21 01:40:40;;;;;;;16.38;10.77;;;;;;;0.60;54.50;96542.88;5034321;28;20237;-79
2022/03/21 01:43:11;;;;;;;14.85;10.18;;;;;;;0.51;54.67;96540.44;5034384;28;20191;-80
2022/03/21 01:45:39;;;;;;;14.20;11.27;;;;;;;0.32;55.70;96546.00;5033960;28;20215;-79
2022/03/21 01:48:07;;;;;;;13.90;10.45;;;;;;;0.36;55.44;96525.25;5034118;28;20202;-78
2022/03/21 01:56:45;;;;;;;20.80;11.93;;;;;;;0.58;55.63;96531.72;5033940;28;20220;-79
2022/03/21 01:59:12;;;;;;;19.52;12.60;;;;;;;0.65;55.49;96529.00;5033671;28;20193;-79
2022/03/21 02:01:40;;;;;;;19.17;14.05;;;;;;;0.57;55.31;96531.72;5033852;28;20208;-79
2022/03/21 02:04:08;;;;;;;24.95;17.05;;;;;;;0.51;56.21;96534.44;5034589;28;20231;-79
2022/03/21 02:30:09;;;;;;;30.58;15.80;;;;;;;0.17;57.25;96529.91;5032401;28;20282;-79
2022/03/21 02:32:37;;;;;;;26.67;14.80;;;;;;;-0.07;57.80;96531.16;5033216;28;20239;-79
2022/03/21 02:35:04;;;;;;;24.58;14.15;;;;;;;-0.06;57.01;96534.59;5033634;28;20190;-79
2022/03/21 02:37:32;;;;;;;21.10;14.48;;;;;;;-0.06;56.84;96529.44;5033691;28;20196;-79
2022/03/21 02:40:01;;;;;;;26.00;14.73;;;;;;;-0.03;57.02;96535.41;5033358;28;20223;-79
2022/03/21 02:42:28;;;;;;;21.38;14.32;;;;;;;-0.16;56.83;96539.06;5033576;28;20194;-79
2022/03/21 02:44:55;;;;;;;32.92;20.08;;;;;;;-0.28;57.64;96552.19;5033645;28;20219;-79
2022/03/21 02:47:24;;;;;;;43.10;22.27;;;;;;;-0.30;58.86;96556.47;5033307;28;20234;-79
2022/03/21 02:49:52;;;;;;;38.25;21.38;;;;;;;-0.26;58.71;96558.16;5034024;28;20194;-79
2022/03/21 02:52:21;;;;;;;37.47;24.35;;;;;;;-0.22;58.43;96549.50;5033184;28;20208;-79
2022/03/21 02:54:48;;;;;;;39.85;25.67;;;;;;;-0.30;58.65;96561.66;5032957;28;20201;-79
2022/03/21 02:57:15;;;;;;;42.33;22.63;;;;;;;-0.41;59.12;96553.22;5032714;28;20199;-79
2022/03/21 02:59:42;;;;;;;37.33;21.73;;;;;;;-0.31;58.83;96554.78;5031752;28;20291;-78
2022/03/21 03:02:09;;;;;;;38.88;22.88;;;;;;;-0.31;58.73;96559.94;4996893;28;20565;-80
2022/03/21 03:04:37;;;;;;;39.20;21.92;;;;;;;-0.24;58.98;96561.56;5031592;28;20294;-80
2022/03/21 03:07:04;;;;;;;36.58;19.00;;;;;;;-0.18;58.96;96561.47;5032170;28;20208;-80
2022/03/21 03:09:31;;;;;;;34.45;18.55;;;;;;;-0.18;58.66;96551.16;5031886;28;20236;-79
2022/03/21 03:11:58;;;;;;;29.20;18.60;;;;;;;-0.14;58.32;96563.13;5031868;28;20203;-79
2022/03/21 03:14:25;;;;;;;25.98;17.50;;;;;;;-0.20;58.59;96552.91;5033088;28;20211;-79
2022/03/21 03:16:52;;;;;;;27.55;17.00;;;;;;;-0.20;58.83;96552.06;5033185;28;20192;-79
2022/03/21 03:19:19;;;;;;;19.35;12.10;;;;;;;-0.21;58.72;96551.19;5001672;28;20224;-79
2022/03/21 03:21:49;;;;;;;20.55;11.98;;;;;;;-0.22;59.04;96554.66;5036890;28;20216;-79
2022/03/21 03:24:19;;;;;;;17.60;10.55;;;;;;;-0.23;58.39;96560.69;5037616;28;20206;-79
2022/03/21 03:26:46;;;;;;;12.45;9.13;;;;;;;-0.24;59.03;96551.25;5036930;28;20295;-79
2022/03/21 03:29:13;;;;;;;18.92;11.50;;;;;;;-0.23;58.29;96552.97;5036943;28;20203;-79
2022/03/21 03:31:40;;;;;;;24.80;11.10;;;;;;;-0.29;58.51;96550.44;5036643;28;20203;-78
2022/03/21 03:34:07;;;;;;;18.73;10.95;;;;;;;-0.24;58.58;96551.25;5037438;28;20207;-80
2022/03/21 03:36:34;;;;;;;17.73;9.68;;;;;;;-0.29;58.83;96547.03;5036172;28;20210;-79
2022/03/21 03:39:03;;;;;;;12.45;9.93;;;;;;;-0.37;59.39;96542.00;5035787;28;20211;-79
2022/03/21 03:41:30;;;;;;;11.63;9.23;;;;;;;-0.32;59.33;96545.34;5036423;28;20242;-79
2022/03/21 03:43:58;;;;;;;13.77;9.40;;;;;;;-0.29;58.75;96542.72;5001879;28;20203;-78
2022/03/21 03:46:25;;;;;;;14.20;10.13;;;;;;;-0.22;59.02;96548.66;5002031;28;20235;-79
2022/03/21 03:48:54;;;;;;;20.65;10.68;;;;;;;-0.25;58.61;96538.38;5036436;28;20192;-79
2022/03/21 03:51:21;;;;;;;13.38;9.75;;;;;;;-0.26;59.07;96537.53;5036204;28;20196;-79
2022/03/21 03:53:48;;;;;;;20.33;11.10;;;;;;;-0.24;58.84;96530.63;5036196;28;20658;-79
2022/03/21 03:56:17;;;;;;;15.27;11.50;;;;;;;-0.24;58.48;96535.78;5036365;28;20199;-79
2022/03/21 03:58:43;;;;;;;19.02;10.90;;;;;;;-0.20;57.94;96540.00;5036428;28;20223;-79
2022/03/21 04:01:23;;;;;;;17.10;11.63;;;;;;;-0.19;57.99;96541.72;5036092;28;20212;-77
2022/03/21 04:03:49;;;;;;;19.88;10.73;;;;;;;-0.11;57.83;96533.84;5001210;28;20210;-79
2022/03/21 04:06:18;;;;;;;14.35;10.00;;;;;;;-0.11;58.00;96532.09;5036085;28;20238;-80
2022/03/21 04:08:45;;;;;;;15.93;10.98;;;;;;;-0.17;58.27;96529.63;5036102;28;20184;-80
2022/03/21 04:11:12;;;;;;;14.82;11.70;;;;;;;-0.19;58.31;96533.13;5035631;28;20188;-79
2022/03/21 04:13:41;;;;;;;23.05;14.15;;;;;;;-0.18;58.57;96535.66;5017635;28;20236;-80
2022/03/21 04:16:08;;;;;;;17.35;11.48;;;;;;;-0.14;59.14;96532.16;5035820;28;20207;-79
2022/03/21 04:18:36;;;;;;;14.75;10.90;;;;;;;-0.13;59.24;96531.28;5035667;28;20675;-79
2022/03/21 04:21:03;;;;;;;25.00;11.18;;;;;;;-0.14;58.98;96529.56;5035528;28;20235;-79
2022/03/21 04:23:30;;;;;;;20.40;10.95;;;;;;;-0.14;59.32;96526.16;5035812;28;20206;-79
2022/03/21 04:25:57;;;;;;;21.42;11.80;;;;;;;-0.11;58.80;96532.09;5035361;28;20206;-79
2022/03/21 04:28:24;;;;;;;16.75;12.02;;;;;;;-0.15;59.03;96527.03;5035389;28;20200;-76
2022/03/21 04:30:52;;;;;;;18.15;12.57;;;;;;;-0.20;58.84;96537.44;5034778;28;20536;-77
2022/03/21 04:33:19;;;;;;;22.02;12.40;;;;;;;-0.24;59.44;96528.03;5035450;28;20196;-79
2022/03/21 04:42:36;;;;;;;18.70;10.57;;;;;;;-0.28;59.95;96536.72;5021800;28;20636;-78
2022/03/21 04:45:03;;;;;;;17.77;12.35;;;;;;;-0.29;59.47;96522.06;5035310;28;20208;-78
2022/03/21 04:47:33;;;;;;;20.13;12.48;;;;;;;-0.08;59.71;96537.22;5034925;28;20207;-79
2022/03/21 04:50:00;;;;;;;26.48;13.82;;;;;;;0.16;59.08;96529.94;5034636;28;20203;-79
2022/03/21 04:52:27;;;;;;;22.60;11.48;;;;;;;0.37;58.83;96529.53;5035222;28;20261;-79
2022/03/21 04:54:54;;;;;;;19.17;10.43;;;;;;;0.60;57.74;96536.84;5034931;28;20216;-79
2022/03/21 04:57:22;;;;;;;17.92;11.30;;;;;;;0.75;57.86;96543.44;5035029;28;20193;-79
2022/03/21 04:59:48;;;;;;;27.65;13.13;;;;;;;0.93;56.91;96533.59;5034609;28;20197;-78
2022/03/21 05:02:15;;;;;;;22.20;13.65;;;;;;;1.11;55.97;96534.06;5034828;28;20236;-79
2022/03/21 05:04:44;;;;;;;31.55;13.77;;;;;;;1.28;55.77;96539.72;5035410;28;20623;-79
2022/03/21 05:07:16;;;;;;;24.30;14.50;;;;;;;1.48;54.72;96536.72;4999815;28;20210;-79
2022/03/21 05:09:43;;;;;;;23.75;15.95;;;;;;;1.71;54.64;96547.34;5034592;28;20310;-79
2022/03/21 05:12:12;;;;;;;26.50;14.77;;;;;;;2.01;53.66;96544.91;5034559;28;20202;-79
2022/03/21 05:14:39;;;;;;;22.63;13.53;;;;;;;2.34;52.69;96549.25;5034537;28;20205;-79
2022/03/21 05:17:09;;;;;;;21.02;13.15;;;;;;;2.65;51.26;96544.13;5034385;28;20438;-78
2022/03/21 05:19:41;;;;;;;24.63;12.50;;;;;;;2.91;51.13;96545.97;5034496;28;20202;-78
2022/03/21 05:22:09;;;;;;;23.95;12.88;;;;;;;3.06;50.44;96553.31;5034599;28;20230;-79
2022/03/21 05:35:52;;;;;;;19.90;13.63;;;;;;;4.57;46.32;96547.66;5034222;28;20450;-79
2022/03/21 05:38:23;;;;;;;19.67;12.13;;;;;;;5.41;44.72;96542.84;5032981;28;20446;-79
2022/03/21 05:40:50;;;;;;;23.33;13.70;;;;;;;5.80;43.88;96548.28;5033479;28;20446;-79
2022/03/21 05:43:17;;;;;;;34.13;14.13;;;;;;;6.21;42.40;96548.41;5033735;28;20469;-79
2022/03/21 05:45:44;;;;;;;15.17;12.53;;;;;;;6.59;41.65;96543.34;5033315;28;20451;-80
2022/03/21 05:50:55;;;;;;;18.80;12.30;;;;;;;7.07;40.48;96540.34;5003980;28;20426;-79
2022/03/21 05:53:23;;;;;;;16.13;11.30;;;;;;;7.19;39.81;96537.19;5031392;28;20447;-79
2022/03/21 05:55:50;;;;;;;16.37;11.97;;;;;;;7.40;38.68;96532.75;5033875;28;20449;-79
2022/03/21 05:58:17;;;;;;;23.63;15.27;;;;;;;7.51;38.65;96543.53;5036880;28;20874;-80
2022/03/21 06:00:44;;;;;;;27.00;14.50;;;;;;;7.65;38.54;96543.78;5053104;28;20442;-79
2022/03/21 06:03:30;;;;;;;25.67;14.13;;;;;;;7.78;38.25;96534.41;5053852;28;20955;-79
2022/03/21 06:05:57;;;;;;;29.73;17.13;;;;;;;8.04;37.96;96538.41;5053613;28;20453;-79
2022/03/21 06:08:26;;;;;;;29.17;17.77;;;;;;;8.21;36.68;96540.22;5053999;28;20805;-78
2022/03/21 06:11:03;;;;;;;35.53;20.20;;;;;;;8.40;36.88;96545.41;5054174;28;20456;-79
2022/03/21 06:13:32;;;;;;;27.63;19.53;;;;;;;8.54;36.62;96542.94;5053791;28;20440;-79
2022/03/21 06:16:01;;;;;;;22.40;15.50;;;;;;;8.67;36.74;96538.81;5019138;28;20813;-79
2022/03/21 06:18:28;;;;;;;48.47;23.77;;;;;;;8.85;36.04;96542.22;5053652;28;21176;-79
2022/03/21 06:21:00;;;;;;;103.03;40.07;;;;;;;9.11;35.59;96543.50;5053297;28;20430;-78
2022/03/21 06:23:28;;;;;;;62.77;32.20;;;;;;;9.26;35.18;96542.72;5053599;28;20433;-79
2022/03/21 06:25:58;;;;;;;43.43;23.90;;;;;;;9.47;35.01;96539.84;5053409;28;20468;-78
2022/03/21 06:28:26;;;;;;;30.77;18.70;;;;;;;9.76;34.14;96536.47;5053009;28;20536;-79
2022/03/21 06:30:53;;;;;;;26.10;15.90;;;;;;;9.99;33.41;96531.72;5052879;28;20448;-79
2022/03/21 06:33:22;;;;;;;19.40;15.57;;;;;;;10.16;32.00;96535.09;5052555;28;20943;-79
2022/03/21 06:35:50;;;;;;;19.37;14.13;;;;;;;10.30;31.30;96530.88;5056303;28;20532;-79
2022/03/21 06:38:18;;;;;;;19.03;12.73;;;;;;;10.36;31.06;96531.34;5056768;28;20889;-79
2022/03/21 06:40:46;;;;;;;20.73;13.20;;;;;;;10.13;30.36;96534.44;5052541;28;20916;-79
2022/03/21 06:43:19;;;;;;;20.93;12.93;;;;;;;9.52;30.49;96527.34;5054476;28;20515;-80
2022/03/21 06:45:47;;;;;;;13.70;11.50;;;;;;;9.12;30.04;96528.63;5054321;28;20529;-78
2022/03/21 06:48:14;;;;;;;16.13;11.03;;;;;;;9.07;30.80;96526.25;5052311;28;20533;-79
2022/03/21 06:50:41;;;;;;;20.37;12.73;;;;;;;9.38;30.53;96527.25;5052386;28;20446;-80
2022/03/21 06:53:08;;;;;;;24.03;13.07;;;;;;;9.85;30.58;96525.50;5053972;28;20450;-79
2022/03/21 06:55:34;;;;;;;22.37;13.23;;;;;;;9.51;29.51;96523.03;5056655;28;20456;-79
2022/03/21 06:58:03;;;;;;;26.73;13.33;;;;;;;9.82;29.90;96530.88;5056381;28;20441;-79
2022/03/21 07:00:31;;;;;;;21.77;13.87;;;;;;;9.92;29.85;96532.09;5057315;28;20548;-78
2022/03/21 07:02:58;;;;;;;17.00;11.60;;;;;;;9.66;30.00;96534.47;5056931;28;20507;-78
2022/03/21 07:05:26;;;;;;;18.10;11.50;;;;;;;9.48;30.71;96526.66;5057066;28;20943;-79
2022/03/21 07:07:53;;;;;;;17.83;13.17;;;;;;;8.50;32.10;96519.63;5038727;28;20449;-78
2022/03/21 07:10:19;;;;;;;18.50;11.83;;;;;;;8.09;32.15;96517.25;5057214;28;20457;-79
2022/03/21 07:12:46;;;;;;;17.30;11.70;;;;;;;7.69;32.94;96521.81;5056891;28;20441;-79
2022/03/21 07:15:15;;;;;;;14.10;11.10;;;;;;;7.56;33.52;96523.31;5056661;28;20445;-79
2022/03/21 07:17:42;;;;;;;19.20;11.27;;;;;;;7.52;33.28;96524.38;5056688;28;20477;-79
2022/03/21 07:20:11;;;;;;;17.30;11.67;;;;;;;7.26;33.33;96517.75;5056958;28;20895;-79
2022/03/21 07:22:38;;;;;;;19.40;10.60;;;;;;;7.15;34.77;96510.38;5038153;28;20481;-78
2022/03/21 07:25:07;;;;;;;22.30;12.20;;;;;;;7.03;34.55;96515.31;5056521;28;20460;-77
2022/03/21 07:27:34;;;;;;;15.50;12.00;;;;;;;7.29;34.15;96511.53;5056237;28;20441;-79
2022/03/21 07:30:01;;;;;;;23.00;11.10;;;;;;;7.01;33.59;96514.53;5056545;28;20452;-78
2022/03/21 07:32:29;;;;;;;19.17;11.63;;;;;;;6.95;33.89;96514.81;5056599;28;20426;-79
2022/03/21 07:34:56;;;;;;;16.00;11.80;;;;;;;6.77;34.25;96513.84;5055653;28;20434;-79
2022/03/21 07:37:23;;;;;;;18.90;11.97;;;;;;;7.00;34.14;96508.47;5038203;28;20430;-77
2022/03/21 07:39:50;;;;;;;19.20;11.47;;;;;;;6.93;35.32;96514.00;5055996;28;20426;-80
2022/03/21 07:42:19;;;;;;;22.10;11.23;;;;;;;7.10;34.70;96514.13;5056506;28;20493;-78
2022/03/21 07:57:36;;;;;;;19.43;11.40;;;;;;;6.84;34.36;96492.63;5055455;28;20453;-79
2022/03/21 08:00:05;;;;;;;17.63;12.50;;;;;;;6.87;35.13;96488.19;5056219;28;20446;-80
2022/03/21 08:02:33;;;;;;;19.17;10.97;;;;;;;7.11;33.81;96497.53;5056149;28;20496;-78
2022/03/21 08:05:01;;;;;;;17.77;12.57;;;;;;;7.34;33.90;96496.50;5055415;28;20863;-79
2022/03/21 08:07:28;;;;;;;20.17;13.57;;;;;;;7.35;34.05;96488.59;5056750;28;20434;-80
2022/03/21 08:09:55;;;;;;;20.57;12.27;;;;;;;7.30;33.74;96482.72;5056021;28;20816;-79
2022/03/21 08:12:22;;;;;;;17.50;11.83;;;;;;;7.23;33.65;96483.94;5056578;28;20481;-79
2022/03/21 08:14:51;;;;;;;21.23;13.13;;;;;;;7.24;33.04;96483.03;5055738;28;20445;-80
2022/03/21 08:17:19;;;;;;;18.93;12.23;;;;;;;7.01;34.09;96483.22;5055315;28;20473;-79
2022/03/21 08:19:46;;;;;;;14.03;10.60;;;;;;;6.74;34.59;96483.53;5037243;28;20437;-80
2022/03/21 08:22:14;;;;;;;19.97;11.43;;;;;;;6.94;35.13;96492.22;5055793;28;20484;-80
2022/03/21 08:24:41;;;;;;;21.03;11.90;;;;;;;7.27;34.81;96497.69;5055347;28;20924;-78
2022/03/21 08:27:08;;;;;;;20.30;11.87;;;;;;;7.56;34.15;96491.97;5055372;28;20434;-80
2022/03/21 08:29:37;;;;;;;19.70;12.77;;;;;;;7.74;33.97;96485.00;5055707;28;20446;-79
2022/03/21 08:32:06;;;;;;;34.53;13.80;;;;;;;7.75;33.80;96478.84;5021477;28;20446;-79
2022/03/21 08:34:33;;;;;;;24.40;12.47;;;;;;;7.54;34.02;96485.13;5055587;28;20445;-79
2022/03/21 08:37:00;;;;;;;20.40;14.10;;;;;;;7.68;34.16;96475.69;5055294;28;20886;-79
2022/03/21 08:39:27;;;;;;;20.20;12.60;;;;;;;7.77;34.10;96471.78;5020423;28;20799;-79
2022/03/21 08:41:54;;;;;;;21.03;13.27;;;;;;;7.84;33.49;96473.19;5054926;28;20679;-79
2022/03/21 08:44:21;;;;;;;19.27;14.00;;;;;;;8.04;34.25;96473.03;5055204;28;20452;-81
2022/03/21 08:46:48;;;;;;;19.30;13.63;;;;;;;7.83;33.88;96468.91;5055651;28;20429;-79
2022/03/21 08:49:26;;;;;;;28.70;14.17;;;;;;;7.98;34.12;96455.06;5036507;28;20433;-79
2022/03/21 08:51:53;;;;;;;18.87;12.90;;;;;;;8.30;34.00;96463.06;5054908;28;20452;-79
2022/03/21 08:54:21;;;;;;;19.03;13.17;;;;;;;8.14;33.48;96467.38;5055241;28;20446;-79
2022/03/21 08:56:48;;;;;;;19.63;13.37;;;;;;;8.57;33.00;96455.59;5055052;28;20448;-78
2022/03/21 08:59:15;;;;;;;21.47;13.63;;;;;;;8.74;33.25;96450.34;5054879;28;20755;-78
2022/03/21 09:01:42;;;;;;;21.17;16.43;;;;;;;8.64;33.58;96452.59;5054840;28;20446;-78
2022/03/21 09:04:10;;;;;;;19.50;13.20;;;;;;;8.32;33.80;96464.66;5055287;28;20449;-78
2022/03/21 09:06:38;;;;;;;17.50;12.10;;;;;;;7.59;34.00;96463.09;5055131;28;20450;-78
2022/03/21 09:09:05;;;;;;;16.27;12.30;;;;;;;7.61;33.72;96457.78;5054919;28;20430;-79
2022/03/21 09:11:33;;;;;;;16.70;10.97;;;;;;;7.54;34.75;96449.41;5054761;28;20917;-80
2022/03/21 09:13:59;;;;;;;18.67;11.63;;;;;;;7.27;34.38;96455.94;5054792;28;20434;-79
2022/03/21 09:16:26;;;;;;;15.70;10.27;;;;;;;6.83;34.64;96464.84;5054361;28;20834;-81
2022/03/21 09:18:53;;;;;;;17.60;11.13;;;;;;;6.68;34.99;96465.56;5054414;28;20437;-79
2022/03/21 09:21:20;;;;;;;11.93;9.93;;;;;;;6.53;35.29;96446.19;5054805;28;20434;-79
2022/03/21 09:23:49;;;;;;;19.63;11.00;;;;;;;6.62;36.17;96442.31;5054583;28;20972;-79
2022/03/21 09:26:17;;;;;;;12.33;8.70;;;;;;;7.26;35.48;96426.34;5054684;28;20437;-78
2022/03/21 09:28:44;;;;;;;19.33;10.80;;;;;;;7.59;34.48;96441.34;5019686;28;20446;-79
2022/03/21 09:31:13;;;;;;;14.00;10.03;;;;;;;7.58;34.04;96448.31;5054123;28;20441;-79
2022/03/21 09:33:41;;;;;;;19.93;11.00;;;;;;;7.48;35.46;96441.84;5054541;28;20437;-80
2022/03/21 09:36:08;;;;;;;18.00;12.67;;;;;;;7.24;34.18;96445.63;5054312;28;20446;-81
2022/03/21 09:38:37;;;;;;;15.27;11.47;;;;;;;7.05;34.40;96450.84;5054356;28;20430;-80
2022/03/21 09:41:06;;;;;;;17.87;10.37;;;;;;;6.91;34.64;96442.78;5054590;28;20438;-80
2022/03/21 09:43:32;;;;;;;21.80;12.40;;;;;;;6.84;36.28;96442.22;5054456;28;20493;-80
2022/03/21 09:46:00;;;;;;;16.00;11.00;;;;;;;6.55;36.30;96440.91;5054482;28;20442;-77
2022/03/21 09:48:28;;;;;;;17.10;10.57;;;;;;;6.76;36.21;96454.78;5053794;28;20775;-78
2022/03/21 09:50:56;;;;;;;14.17;10.60;;;;;;;6.73;34.46;96432.28;5036086;28;20438;-77
2022/03/21 09:53:24;;;;;;;21.10;12.10;;;;;;;6.76;36.34;96439.13;5053782;28;20446;-81
2022/03/21 09:59:14;;;;;;;17.43;12.67;;;;;;;6.49;36.29;96444.63;5053920;28;20401;-78
2022/03/21 10:01:44;;;;;;;18.10;10.27;;;;;;;6.39;36.21;96437.28;5053454;28;20454;-81
2022/03/21 10:04:11;;;;;;;12.23;9.37;;;;;;;6.29;36.05;96435.97;5019060;28;20583;-80
2022/03/21 10:06:40;;;;;;;20.33;10.63;;;;;;;6.16;35.91;96431.31;5053718;28;20441;-80
2022/03/21 10:09:10;;;;;;;19.67;11.17;;;;;;;5.94;35.34;96435.72;5053722;28;20449;-80
2022/03/21 10:11:37;;;;;;;19.97;12.50;;;;;;;6.13;36.81;96434.03;5054170;28;20862;-78
2022/03/21 10:14:32;;;;;;;26.67;12.53;;;;;;;6.42;36.55;96431.94;5053910;28;20430;-79
2022/03/21 10:17:02;;;;;;;13.67;10.43;;;;;;;6.53;36.10;96424.47;5053708;28;21015;-80
2022/03/21 10:26:27;;;;;;;18.10;11.03;;;;;;;6.82;36.87;96423.19;5053084;28;20433;-79
2022/03/21 10:28:55;;;;;;;20.37;12.90;;;;;;;6.63;35.96;96428.38;5052715;28;20538;-78
2022/03/21 10:31:41;;;;;;;34.70;21.10;;;;;;;6.60;36.23;96425.91;5053438;28;20488;-81
2022/03/21 10:34:10;;;;;;;25.23;17.70;;;;;;;6.64;36.42;96430.06;5053498;28;20450;-81
2022/03/21 10:36:38;;;;;;;29.97;17.60;;;;;;;6.30;35.68;96416.81;5053369;28;20442;-80
2022/03/21 10:39:13;;;;;;;41.50;21.40;;;;;;;6.44;37.20;96422.28;5050541;28;20442;-80
2022/03/21 10:41:41;;;;;;;22.70;14.00;;;;;;;6.45;35.74;96413.56;5052657;28;20449;-79
2022/03/21 10:44:08;;;;;;;19.93;11.73;;;;;;;6.33;36.07;96414.06;5052660;28;20481;-81
2022/03/21 10:46:36;;;;;;;24.53;16.70;;;;;;;6.45;36.29;96403.13;5051817;28;20441;-81
2022/03/21 10:49:08;;;;;;;27.87;12.80;;;;;;;6.58;36.75;96401.66;5051534;28;20460;-80
2022/03/21 10:51:48;;;;;;;20.87;13.40;;;;;;;6.75;34.89;96406.13;5017282;28;20468;-79
2022/03/21 10:54:45;;;;;;;23.97;15.60;;;;;;;6.89;35.62;96414.16;5053136;28;20437;-79
2022/03/21 10:57:36;;;;;;;16.70;10.03;;;;;;;6.88;35.61;96402.03;5052911;28;20461;-79
2022/03/21 11:00:17;;;;;;;13.77;11.13;;;;;;;7.01;34.63;96391.88;5052737;28;20477;-80
2022/03/21 11:02:53;;;;;;;16.50;11.27;;;;;;;7.12;35.39;96400.88;5052965;28;20832;-79
2022/03/21 11:05:23;;;;;;;15.43;10.17;;;;;;;7.09;33.40;96397.56;5052725;28;20448;-80
2022/03/21 11:07:53;;;;;;;12.30;9.07;;;;;;;6.86;34.59;96387.34;5052664;28;20807;-80
2022/03/21 11:10:21;;;;;;;15.83;10.30;;;;;;;6.94;34.88;96382.63;5053246;28;20457;-80
2022/03/21 11:12:48;;;;;;;17.27;11.43;;;;;;;7.12;35.49;96374.78;5053406;28;20468;-81
2022/03/21 11:15:16;;;;;;;14.03;10.33;;;;;;;7.31;34.60;96377.38;5052998;28;20438;-79
2022/03/21 11:17:44;;;;;;;15.97;11.40;;;;;;;7.32;35.14;96368.63;5053218;28;20523;-80
2022/03/21 11:20:13;;;;;;;20.77;12.20;;;;;;;7.24;35.32;96365.53;5053185;28;20449;-80
2022/03/21 11:22:43;;;;;;;43.53;14.27;;;;;;;6.99;34.98;96367.63;5018489;28;20520;-79
2022/03/21 11:25:12;;;;;;;17.40;11.87;;;;;;;6.85;34.94;96368.25;5018202;28;20483;-79
2022/03/21 11:28:01;;;;;;;16.90;11.00;;;;;;;6.98;35.60;96355.50;5052785;28;20438;-79
2022/03/21 11:33:58;;;;;;;12.40;9.00;;;;;;;7.38;35.23;96357.03;5051680;28;20471;-81
2022/03/21 11:36:25;;;;;;;16.50;9.10;;;;;;;7.47;35.37;96346.97;5052667;28;20429;-79
2022/03/21 11:39:00;;;;;;;13.27;10.03;;;;;;;7.60;34.66;96343.75;5053573;28;20457;-79
2022/03/21 11:41:29;;;;;;;11.80;9.70;;;;;;;7.82;34.70;96339.16;5056955;28;20440;-78
2022/03/21 11:44:14;;;;;;;21.83;9.43;;;;;;;7.87;32.99;96345.00;5056152;28;20499;-78
2022/03/21 11:46:44;;;;;;;10.57;8.30;;;;;;;7.84;33.70;96324.25;5056287;28;20446;-81
2022/03/21 11:49:44;;;;;;;18.57;8.43;;;;;;;7.76;33.60;96321.16;5056434;28;20473;-78
2022/03/21 11:52:12;;;;;;;10.87;8.60;;;;;;;7.69;33.80;96320.63;5056773;28;20469;-78
2022/03/21 11:54:41;;;;;;;15.27;9.30;;;;;;;7.78;32.95;96327.16;5056432;28;20438;-80
2022/03/21 11:57:09;;;;;;;9.93;8.73;;;;;;;7.88;33.13;96317.09;5056057;28;20928;-79
2022/03/21 11:59:53;;;;;;;13.93;9.67;;;;;;;7.91;33.04;96317.78;5056240;28;20434;-79
2022/03/21 12:02:55;;;;;;;15.53;11.50;;;;;;;7.85;34.55;96317.25;5056154;28;20445;-79
2022/03/21 12:08:58;;;;;;;12.90;9.43;;;;;;;7.96;33.79;96309.69;5056430;28;20433;-79
2022/03/21 12:11:59;;;;;;;14.83;10.40;;;;;;;8.08;34.10;96309.88;5055983;28;20532;-80
2022/03/21 12:14:44;;;;;;;12.03;9.10;;;;;;;7.39;33.71;96307.34;5056051;28;20535;-79
2022/03/21 12:17:38;;;;;;;14.37;10.10;;;;;;;7.60;34.28;96312.41;5055851;28;20946;-80
2022/03/21 12:20:15;;;;;;;16.43;10.63;;;;;;;7.52;34.44;96302.38;5056140;28;21518;-80
2022/03/21 12:22:50;;;;;;;14.73;10.17;;;;;;;7.43;35.35;96306.25;5055461;28;20441;-80
2022/03/21 12:25:22;;;;;;;17.70;11.00;;;;;;;7.45;35.61;96304.41;5055725;28;20444;-80
2022/03/21 12:27:51;;;;;;;15.97;10.70;;;;;;;7.61;35.29;96299.28;5055544;28;20920;-78
2022/03/21 12:30:39;;;;;;;21.20;11.90;;;;;;;7.80;35.22;96299.16;5055338;28;20461;-78
2022/03/21 12:33:28;;;;;;;14.27;10.00;;;;;;;7.97;34.03;96307.00;5055797;28;20453;-80
2022/03/21 12:36:05;;;;;;;15.33;9.00;;;;;;;7.84;33.57;96299.88;5055535;28;20855;-79
2022/03/21 12:38:39;;;;;;;11.80;8.60;;;;;;;7.49;33.38;96297.25;5055397;28;20524;-79
2022/03/21 12:41:11;;;;;;;9.00;7.87;;;;;;;7.52;32.76;96291.03;5060215;28;20480;-80
2022/03/21 12:43:52;;;;;;;15.50;8.80;;;;;;;7.78;34.19;96299.25;5036857;28;20964;-80
2022/03/21 12:46:22;;;;;;;16.90;10.93;;;;;;;7.91;34.25;96281.19;5055300;28;20488;-79
2022/03/21 12:48:54;;;;;;;30.37;11.67;;;;;;;8.03;35.29;96285.75;5055856;28;20437;-80
2022/03/21 12:51:32;;;;;;;14.13;10.07;;;;;;;8.09;34.24;96261.06;5054366;28;20433;-80
2022/03/21 12:54:04;;;;;;;12.27;8.87;;;;;;;7.92;34.07;96282.03;5056940;28;20429;-80
2022/03/21 12:56:31;;;;;;;15.70;11.07;;;;;;;7.80;33.97;96283.50;5055064;28;20460;-80
2022/03/21 12:59:01;;;;;;;17.13;11.77;;;;;;;7.84;35.45;96277.22;5055197;28;20446;-80